Black Watch — C6RS5 — position and weather

sailwx.info

Track history (hours):
 
Tides and Currents Weather Stations Pressure Air Temp Water Temp Dewpoint Dewpoint Depression Visibility Wind Speed Wind Dir Waves Ship Positions

Black Watch

Last reported at 2017-Aug-19 04:44 UTC. Time now 2017-Aug-19 14:52 UTC.
Position N 57°32' W 006°06'.

Length 205 m; draft 7.5 m.

Type: Passenger vessel. MMSI: 311166000.

Date/timePositionNaut miles runAvg speedWind from/ knotsBaromVisibWave heightAir tempDewpointWater temp
2017-Aug-19 04:44N 57°32' W 006°06'63 5.3
2017-Aug-18 16:45N 56°30' W 005°42'311.2
2017-Aug-18 16:31N 56°28' W 005°39'5 9.1
2017-Aug-18 16:00N 56°31' W 005°34'815.3
2017-Aug-18 15:30N 56°37' W 005°24'815.2
2017-Aug-18 15:00N 56°43' W 005°15'8 7.5
2017-Aug-18 13:58N 56°49' W 005°07'0 0.0
2017-Aug-18 13:28N 56°49' W 005°07'0 0.0
2017-Aug-18 12:52N 56°49' W 005°07'0 0.0
2017-Aug-18 11:58N 56°49' W 005°07'0 0.0
2017-Aug-18 11:28N 56°49' W 005°08'0 0.1
2017-Aug-18 10:52N 56°49' W 005°08'0 0.1
2017-Aug-18 10:28N 56°49' W 005°07'0 0.0
2017-Aug-18 08:07N 56°49' W 005°07'0 0.0
2017-Aug-18 06:40N 56°49' W 005°07'0 0.1
2017-Aug-18 05:31N 56°49' W 005°07'0 0.1
2017-Aug-18 05:10N 56°49' W 005°07'0 0.2
2017-Aug-18 04:52N 56°49' W 005°07'0 0.3
2017-Aug-18 04:28N 56°49' W 005°08'1 1.4
2017-Aug-18 03:59N 56°48' W 005°08'613.3
2017-Aug-18 03:30N 56°43' W 005°15'815.5
2017-Aug-18 03:01N 56°37' W 005°24'917.2
2017-Aug-18 02:31N 56°31' W 005°34'138 5.3
2017-Aug-17 00:19N 58°43' W 004°17'413.4
2017-Aug-17 00:00N 58°43' W 004°08'713.3
2017-Aug-16 23:30N 58°43' W 003°56'714.5
2017-Aug-16 23:00N 58°43' W 003°42'917.7
2017-Aug-16 22:30N 58°43' W 003°25'918.6
2017-Aug-16 22:01N 58°43' W 003°07'917.2
2017-Aug-16 21:30N 58°37' W 002°55'15 0.7
2017-Aug-15 23:07N 58°24' W 002°39'111.1
2017-Aug-15 23:00N 58°25' W 002°39'611.2
2017-Aug-15 22:30N 58°31' W 002°35'611.3
2017-Aug-15 22:00N 58°36' W 002°34'611.5
2017-Aug-15 21:30N 58°42' W 002°34'611.6
2017-Aug-15 21:00N 58°48' W 002°34'611.8
2017-Aug-15 20:30N 58°54' W 002°34'610.2
2017-Aug-15 19:56N 58°59' W 002°38'615.2
2017-Aug-15 19:30N 59°00' W 002°50'4 8.1
2017-Aug-15 19:00N 59°00' W 002°58'0 0.8
2017-Aug-15 18:30N 59°00' W 002°58'0 0.0
2017-Aug-15 18:00N 59°00' W 002°58'0 0.0
2017-Aug-15 17:30N 59°00' W 002°58'0 0.0
2017-Aug-15 17:00N 59°00' W 002°58'0 0.0
2017-Aug-15 16:30N 59°00' W 002°58'0 0.0
2017-Aug-15 16:00N 59°00' W 002°58'0 0.0
2017-Aug-15 15:30N 59°00' W 002°58'0 0.0
2017-Aug-15 15:00N 59°00' W 002°58'0 0.0
2017-Aug-15 14:24N 59°00' W 002°58'0 0.0
2017-Aug-15 14:00N 59°00' W 002°58'0 0.0
2017-Aug-15 13:30N 59°00' W 002°58'1 1.9
2017-Aug-15 13:01N 59°01' W 002°58'1 1.6
2017-Aug-15 12:30N 59°00' W 002°58'3 6.8
2017-Aug-15 12:00N 59°01' W 002°52'713.0
2017-Aug-15 11:30N 58°59' W 002°40'816.8
2017-Aug-15 11:00N 58°52' W 002°31'7417.1
2017-Aug-15 06:40N 57°46' W 001°26'315.9
2017-Aug-15 06:30N 57°44' W 001°24'4815.3
2017-Aug-15 03:20N 56°56' W 001°36'4517.4
2017-Aug-15 00:45N 56°15' W 002°10'417.3
2017-Aug-15 00:30N 56°13' W 002°16'917.3
2017-Aug-15 00:00N 56°08' W 002°30'817.1
2017-Aug-14 23:30N 56°07' W 002°45'817.0
2017-Aug-14 23:00N 56°04' W 002°58'713.8
2017-Aug-14 22:30N 56°03' W 003°11'714.5
2017-Aug-14 22:00N 56°00' W 003°23'1 0.1
2017-Aug-14 14:41N 56°00' W 003°24'1 6.6
2017-Aug-14 14:30N 56°01' W 003°22'612.7
2017-Aug-14 14:01N 56°03' W 003°11'713.2
2017-Aug-14 13:30N 56°04' W 002°60'611.1
2017-Aug-14 13:00N 56°07' W 002°51'815.3
2017-Aug-14 12:30N 56°07' W 002°38'816.2
2017-Aug-14 12:00N 56°07' W 002°23'917.2
2017-Aug-14 11:30N 56°04' W 002°08'817.0
2017-Aug-14 11:00N 56°02' W 001°54'1122.5
2017-Aug-14 10:30N 55°56' W 001°36'3 6.1
2017-Aug-14 09:58N 55°54' W 001°32'7312.7
2017-Aug-14 04:11N 55°01' W 000°02'213.1
2017-Aug-14 04:00N 54°60' E 000°01'713.4
2017-Aug-14 03:30N 54°55' E 000°09'713.6
2017-Aug-14 03:00N 54°50' E 000°18'713.7
2017-Aug-14 02:30N 54°45' E 000°26'713.7
2017-Aug-14 02:01N 54°40' E 000°34'713.6
2017-Aug-14 01:30N 54°35' E 000°42'813.6
2017-Aug-14 00:54N 54°29' E 000°52'513.4
2017-Aug-14 00:30N 54°26' E 000°59'713.0
2017-Aug-14 00:00N 54°21' E 001°06'612.7
2017-Aug-13 23:30N 54°16' E 001°14'1412.5
2017-Aug-13 22:24N 54°06' E 001°31'512.3
2017-Aug-13 22:00N 54°03' E 001°36'612.2
2017-Aug-13 21:30N 53°59' E 001°43'611.9
2017-Aug-13 21:00N 53°54' E 001°50'612.2
2017-Aug-13 20:30N 53°50' E 001°58'612.5
2017-Aug-13 20:00N 53°45' E 002°05'10914.1
2017-Aug-13 12:18N 51°57' E 002°15'814.6
2017-Aug-13 11:46N 51°49' E 002°15'514.6
2017-Aug-13 11:24N 51°45' E 002°09'614.8
2017-Aug-13 10:59N 51°40' E 002°03'714.9
2017-Aug-13 10:30N 51°35' E 001°55'714.6
2017-Aug-13 10:00N 51°29' E 001°48'815.5
2017-Aug-13 09:30N 51°22' E 001°45'815.3
2017-Aug-13 09:00N 51°15' E 001°40'714.8
2017-Aug-13 08:31N 51°09' E 001°32'713.3
2017-Aug-13 08:00N 51°06' E 001°22'2 0.4
2017-Aug-13 03:55N 51°07' E 001°19'0 0.3
2017-Aug-13 03:29N 51°07' E 001°20'4 8.3
2017-Aug-13 03:00N 51°07' E 001°26'612.5
2017-Aug-13 02:31N 51°10' E 001°35'714.9
2017-Aug-13 02:01N 51°16' E 001°41'815.2
2017-Aug-13 01:31N 51°23' E 001°45'816.5
2017-Aug-13 01:00N 51°31' E 001°50'815.2
2017-Aug-13 00:31N 51°36' E 001°59'815.9
2017-Aug-13 00:00N 51°42' E 002°09'816.0
2017-Aug-12 23:30N 51°47' E 002°18'916.0
2017-Aug-12 22:57N 51°53' E 002°29'613.6
2017-Aug-12 22:30N 51°57' E 002°36'6611.8
2017-Aug-12 16:55N 52°31' E 004°09'511.8
2017-Aug-12 16:30N 52°30' E 004°17'611.6
2017-Aug-12 16:00N 52°29' E 004°26'4 9.0
2017-Aug-12 15:30N 52°28' E 004°33'2 4.2
2017-Aug-12 15:01N 52°28' E 004°36'1 1.6
2017-Aug-12 14:30N 52°28' E 004°38'4 7.6
2017-Aug-12 14:00N 52°26' E 004°43'4 8.1
2017-Aug-12 13:31N 52°25' E 004°50'3 6.8
2017-Aug-12 13:01N 52°23' E 004°54'1 1.5
2017-Aug-12 12:26N 52°23' E 004°55'0 0.0
2017-Aug-12 11:59N 52°23' E 004°55'0 0.0
2017-Aug-12 11:29N 52°23' E 004°55'0 0.0
2017-Aug-12 10:59N 52°23' E 004°55'0 0.0
2017-Aug-12 10:29N 52°23' E 004°55'0 0.0
2017-Aug-12 09:59N 52°23' E 004°55'0 0.0
2017-Aug-12 09:26N 52°23' E 004°55'0 0.0
2017-Aug-12 08:59N 52°23' E 004°55'0 0.0
2017-Aug-12 08:29N 52°23' E 004°55'0 0.0
2017-Aug-12 07:59N 52°23' E 004°55'0 0.0
2017-Aug-12 07:29N 52°23' E 004°55'0 0.0
2017-Aug-12 06:59N 52°23' E 004°55'0 0.0
2017-Aug-12 06:29N 52°23' E 004°55'0 0.0
2017-Aug-12 05:59N 52°23' E 004°55'0 0.0
2017-Aug-12 05:29N 52°23' E 004°55'0 0.0
2017-Aug-12 04:59N 52°23' E 004°55'0 0.0
2017-Aug-12 04:29N 52°23' E 004°55'0 0.0
2017-Aug-12 03:56N 52°23' E 004°55'0 0.0
2017-Aug-12 03:29N 52°23' E 004°55'0 0.0
2017-Aug-12 02:59N 52°23' E 004°55'0 0.0
2017-Aug-12 02:29N 52°23' E 004°55'0 0.0
2017-Aug-12 01:59N 52°23' E 004°55'0 0.0
2017-Aug-12 01:29N 52°23' E 004°55'0 0.0
2017-Aug-12 00:59N 52°23' E 004°55'0 0.0
2017-Aug-12 00:29N 52°23' E 004°55'0 0.0
2017-Aug-11 23:59N 52°23' E 004°55'0 0.0
2017-Aug-11 23:29N 52°23' E 004°55'0 0.0
2017-Aug-11 22:59N 52°23' E 004°55'0 0.0
2017-Aug-11 22:29N 52°23' E 004°55'0 0.0
2017-Aug-11 21:56N 52°23' E 004°55'0 0.0
2017-Aug-11 21:29N 52°23' E 004°55'0 0.0
2017-Aug-11 20:59N 52°23' E 004°55'0 0.0
2017-Aug-11 20:29N 52°23' E 004°55'0 0.0
2017-Aug-11 19:59N 52°23' E 004°55'0 0.0
2017-Aug-11 19:29N 52°23' E 004°55'0 0.0
2017-Aug-11 18:59N 52°23' E 004°55'0 0.0
2017-Aug-11 18:29N 52°23' E 004°55'0 0.0
2017-Aug-11 17:59N 52°23' E 004°55'0 0.0
2017-Aug-11 17:29N 52°23' E 004°55'0 0.0
2017-Aug-11 16:59N 52°23' E 004°55'0 0.0
2017-Aug-11 16:29N 52°23' E 004°55'0 0.0
2017-Aug-11 15:59N 52°23' E 004°55'0 0.0
2017-Aug-11 15:29N 52°23' E 004°55'0 0.0
2017-Aug-11 14:59N 52°23' E 004°55'0 0.0
2017-Aug-11 13:59N 52°23' E 004°55'0 0.0
2017-Aug-11 13:29N 52°23' E 004°55'0 0.0
2017-Aug-11 12:59N 52°23' E 004°55'0 0.0
2017-Aug-11 12:29N 52°23' E 004°55'0 0.0
2017-Aug-11 11:59N 52°23' E 004°55'0 0.0
2017-Aug-11 11:29N 52°23' E 004°55'0 0.0
2017-Aug-11 10:59N 52°23' E 004°55'0 0.0
2017-Aug-11 10:29N 52°23' E 004°55'0 0.0
2017-Aug-11 09:59N 52°23' E 004°55'0 0.0
2017-Aug-11 09:26N 52°23' E 004°55'0 0.0
2017-Aug-11 08:59N 52°23' E 004°55'0 0.0
2017-Aug-11 08:29N 52°23' E 004°55'0 0.0
2017-Aug-11 07:59N 52°23' E 004°55'0 0.0
2017-Aug-11 07:29N 52°23' E 004°55'1 1.7
2017-Aug-11 07:00N 52°23' E 004°54'3 6.7
2017-Aug-11 06:30N 52°25' E 004°50'4 8.5
2017-Aug-11 06:01N 52°26' E 004°43'4 7.8
2017-Aug-11 05:30N 52°28' E 004°37'1 1.1
2017-Aug-11 05:01N 52°28' E 004°37'1 2.9
2017-Aug-11 04:31N 52°28' E 004°34'712.9
2017-Aug-11 04:00N 52°29' E 004°24'510.9
2017-Aug-11 03:30N 52°29' E 004°15'612.7
2017-Aug-11 03:00N 52°28' E 004°04'612.8
2017-Aug-11 02:30N 52°26' E 003°54'612.7
2017-Aug-11 02:00N 52°23' E 003°45'812.4
2017-Aug-11 01:24N 52°19' E 003°35'512.1
2017-Aug-11 00:59N 52°17' E 003°27'611.9
2017-Aug-11 00:30N 52°14' E 003°19'4911.1
2017-Aug-10 20:05N 51°46' E 002°14'512.3
2017-Aug-10 19:43N 51°43' E 002°09'412.5
2017-Aug-10 19:24N 51°40' E 002°04'512.4
2017-Aug-10 19:00N 51°37' E 001°59'612.6
2017-Aug-10 18:30N 51°32' E 001°51'612.6
2017-Aug-10 18:00N 51°27' E 001°46'612.8
2017-Aug-10 17:30N 51°21' E 001°43'713.1
2017-Aug-10 17:00N 51°14' E 001°40'612.7
2017-Aug-10 16:30N 51°10' E 001°33'714.9
2017-Aug-10 16:01N 51°06' E 001°23'2 0.2
2017-Aug-10 04:25N 51°07' E 001°19'0 0.4
2017-Aug-10 03:57N 51°07' E 001°20'4 8.5
2017-Aug-10 03:30N 51°07' E 001°25'611.9
2017-Aug-10 03:00N 51°10' E 001°34'713.9
2017-Aug-10 02:30N 51°16' E 001°40'713.3
2017-Aug-10 02:00N 51°22' E 001°44'611.9
2017-Aug-10 01:30N 51°28' E 001°47'612.3
2017-Aug-10 01:00N 51°33' E 001°52'612.5
2017-Aug-10 00:30N 51°38' E 001°59'612.6
2017-Aug-10 00:00N 51°42' E 002°06'713.2
2017-Aug-09 23:29N 51°47' E 002°13'1014.4
2017-Aug-09 22:49N 51°55' E 002°23'515.4
2017-Aug-09 22:30N 51°59' E 002°27'815.3
2017-Aug-09 21:59N 52°07' E 002°27'915.4
2017-Aug-09 21:25N 52°16' E 002°27'  
Track history (hours):
 
Tides and Currents Weather Stations Pressure Air Temp Water Temp Dewpoint Dewpoint Depression Visibility Wind Speed Wind Dir Waves Ship Positions

Black Watch

Last reported at 2017-Aug-19 04:44 UTC. Time now 2017-Aug-19 14:52 UTC.
Position N 57°32' W 006°06'.

Length 205 m; draft 7.5 m.

Type: Passenger vessel. MMSI: 311166000.

Date/timePositionNaut miles runAvg speedWind from/ knotsBaromVisibWave heightAir tempDewpointWater temp
2017-Aug-19 04:44N 57°32' W 006°06'63 5.3
2017-Aug-18 16:45N 56°30' W 005°42'311.2
2017-Aug-18 16:31N 56°28' W 005°39'5 9.1
2017-Aug-18 16:00N 56°31' W 005°34'815.3
2017-Aug-18 15:30N 56°37' W 005°24'815.2
2017-Aug-18 15:00N 56°43' W 005°15'8 7.5
2017-Aug-18 13:58N 56°49' W 005°07'0 0.0
2017-Aug-18 13:28N 56°49' W 005°07'0 0.0
2017-Aug-18 12:52N 56°49' W 005°07'0 0.0
2017-Aug-18 11:58N 56°49' W 005°07'0 0.0
2017-Aug-18 11:28N 56°49' W 005°08'0 0.1
2017-Aug-18 10:52N 56°49' W 005°08'0 0.1
2017-Aug-18 10:28N 56°49' W 005°07'0 0.0
2017-Aug-18 08:07N 56°49' W 005°07'0 0.0
2017-Aug-18 06:40N 56°49' W 005°07'0 0.1
2017-Aug-18 05:31N 56°49' W 005°07'0 0.1
2017-Aug-18 05:10N 56°49' W 005°07'0 0.2
2017-Aug-18 04:52N 56°49' W 005°07'0 0.3
2017-Aug-18 04:28N 56°49' W 005°08'1 1.4
2017-Aug-18 03:59N 56°48' W 005°08'613.3
2017-Aug-18 03:30N 56°43' W 005°15'815.5
2017-Aug-18 03:01N 56°37' W 005°24'917.2
2017-Aug-18 02:31N 56°31' W 005°34'138 5.3
2017-Aug-17 00:19N 58°43' W 004°17'413.4
2017-Aug-17 00:00N 58°43' W 004°08'713.3
2017-Aug-16 23:30N 58°43' W 003°56'714.5
2017-Aug-16 23:00N 58°43' W 003°42'917.7
2017-Aug-16 22:30N 58°43' W 003°25'918.6
2017-Aug-16 22:01N 58°43' W 003°07'917.2
2017-Aug-16 21:30N 58°37' W 002°55'15 0.7
2017-Aug-15 23:07N 58°24' W 002°39'111.1
2017-Aug-15 23:00N 58°25' W 002°39'611.2
2017-Aug-15 22:30N 58°31' W 002°35'611.3
2017-Aug-15 22:00N 58°36' W 002°34'611.5
2017-Aug-15 21:30N 58°42' W 002°34'611.6
2017-Aug-15 21:00N 58°48' W 002°34'611.8
2017-Aug-15 20:30N 58°54' W 002°34'610.2
2017-Aug-15 19:56N 58°59' W 002°38'615.2
2017-Aug-15 19:30N 59°00' W 002°50'4 8.1
2017-Aug-15 19:00N 59°00' W 002°58'0 0.8
2017-Aug-15 18:30N 59°00' W 002°58'0 0.0
2017-Aug-15 18:00N 59°00' W 002°58'0 0.0
2017-Aug-15 17:30N 59°00' W 002°58'0 0.0
2017-Aug-15 17:00N 59°00' W 002°58'0 0.0
2017-Aug-15 16:30N 59°00' W 002°58'0 0.0
2017-Aug-15 16:00N 59°00' W 002°58'0 0.0
2017-Aug-15 15:30N 59°00' W 002°58'0 0.0
2017-Aug-15 15:00N 59°00' W 002°58'0 0.0
2017-Aug-15 14:24N 59°00' W 002°58'0 0.0
2017-Aug-15 14:00N 59°00' W 002°58'0 0.0
2017-Aug-15 13:30N 59°00' W 002°58'1 1.9
2017-Aug-15 13:01N 59°01' W 002°58'1 1.6
2017-Aug-15 12:30N 59°00' W 002°58'3 6.8
2017-Aug-15 12:00N 59°01' W 002°52'713.0
2017-Aug-15 11:30N 58°59' W 002°40'816.8
2017-Aug-15 11:00N 58°52' W 002°31'7417.1
2017-Aug-15 06:40N 57°46' W 001°26'315.9
2017-Aug-15 06:30N 57°44' W 001°24'4815.3
2017-Aug-15 03:20N 56°56' W 001°36'4517.4
2017-Aug-15 00:45N 56°15' W 002°10'417.3
2017-Aug-15 00:30N 56°13' W 002°16'917.3
2017-Aug-15 00:00N 56°08' W 002°30'817.1
2017-Aug-14 23:30N 56°07' W 002°45'817.0
2017-Aug-14 23:00N 56°04' W 002°58'713.8
2017-Aug-14 22:30N 56°03' W 003°11'714.5
2017-Aug-14 22:00N 56°00' W 003°23'1 0.1
2017-Aug-14 14:41N 56°00' W 003°24'1 6.6
2017-Aug-14 14:30N 56°01' W 003°22'612.7
2017-Aug-14 14:01N 56°03' W 003°11'713.2
2017-Aug-14 13:30N 56°04' W 002°60'611.1
2017-Aug-14 13:00N 56°07' W 002°51'815.3
2017-Aug-14 12:30N 56°07' W 002°38'816.2
2017-Aug-14 12:00N 56°07' W 002°23'917.2
2017-Aug-14 11:30N 56°04' W 002°08'817.0
2017-Aug-14 11:00N 56°02' W 001°54'1122.5
2017-Aug-14 10:30N 55°56' W 001°36'3 6.1
2017-Aug-14 09:58N 55°54' W 001°32'7312.7
2017-Aug-14 04:11N 55°01' W 000°02'213.1
2017-Aug-14 04:00N 54°60' E 000°01'713.4
2017-Aug-14 03:30N 54°55' E 000°09'713.6
2017-Aug-14 03:00N 54°50' E 000°18'713.7
2017-Aug-14 02:30N 54°45' E 000°26'713.7
2017-Aug-14 02:01N 54°40' E 000°34'713.6
2017-Aug-14 01:30N 54°35' E 000°42'813.6
2017-Aug-14 00:54N 54°29' E 000°52'513.4
2017-Aug-14 00:30N 54°26' E 000°59'713.0
2017-Aug-14 00:00N 54°21' E 001°06'612.7
2017-Aug-13 23:30N 54°16' E 001°14'1412.5
2017-Aug-13 22:24N 54°06' E 001°31'512.3
2017-Aug-13 22:00N 54°03' E 001°36'612.2
2017-Aug-13 21:30N 53°59' E 001°43'611.9
2017-Aug-13 21:00N 53°54' E 001°50'612.2
2017-Aug-13 20:30N 53°50' E 001°58'612.5
2017-Aug-13 20:00N 53°45' E 002°05'10914.1
2017-Aug-13 12:18N 51°57' E 002°15'814.6
2017-Aug-13 11:46N 51°49' E 002°15'514.6
2017-Aug-13 11:24N 51°45' E 002°09'614.8
2017-Aug-13 10:59N 51°40' E 002°03'714.9
2017-Aug-13 10:30N 51°35' E 001°55'714.6
2017-Aug-13 10:00N 51°29' E 001°48'815.5
2017-Aug-13 09:30N 51°22' E 001°45'815.3
2017-Aug-13 09:00N 51°15' E 001°40'714.8
2017-Aug-13 08:31N 51°09' E 001°32'713.3
2017-Aug-13 08:00N 51°06' E 001°22'2 0.4
2017-Aug-13 03:55N 51°07' E 001°19'0 0.3
2017-Aug-13 03:29N 51°07' E 001°20'4 8.3
2017-Aug-13 03:00N 51°07' E 001°26'612.5
2017-Aug-13 02:31N 51°10' E 001°35'714.9
2017-Aug-13 02:01N 51°16' E 001°41'815.2
2017-Aug-13 01:31N 51°23' E 001°45'816.5
2017-Aug-13 01:00N 51°31' E 001°50'815.2
2017-Aug-13 00:31N 51°36' E 001°59'815.9
2017-Aug-13 00:00N 51°42' E 002°09'816.0
2017-Aug-12 23:30N 51°47' E 002°18'916.0
2017-Aug-12 22:57N 51°53' E 002°29'613.6
2017-Aug-12 22:30N 51°57' E 002°36'6611.8
2017-Aug-12 16:55N 52°31' E 004°09'511.8
2017-Aug-12 16:30N 52°30' E 004°17'611.6
2017-Aug-12 16:00N 52°29' E 004°26'4 9.0
2017-Aug-12 15:30N 52°28' E 004°33'2 4.2
2017-Aug-12 15:01N 52°28' E 004°36'1 1.6
2017-Aug-12 14:30N 52°28' E 004°38'4 7.6
2017-Aug-12 14:00N 52°26' E 004°43'4 8.1
2017-Aug-12 13:31N 52°25' E 004°50'3 6.8
2017-Aug-12 13:01N 52°23' E 004°54'1 1.5
2017-Aug-12 12:26N 52°23' E 004°55'0 0.0
2017-Aug-12 11:59N 52°23' E 004°55'0 0.0
2017-Aug-12 11:29N 52°23' E 004°55'0 0.0
2017-Aug-12 10:59N 52°23' E 004°55'0 0.0
2017-Aug-12 10:29N 52°23' E 004°55'0 0.0
2017-Aug-12 09:59N 52°23' E 004°55'0 0.0
2017-Aug-12 09:26N 52°23' E 004°55'0 0.0
2017-Aug-12 08:59N 52°23' E 004°55'0 0.0
2017-Aug-12 08:29N 52°23' E 004°55'0 0.0
2017-Aug-12 07:59N 52°23' E 004°55'0 0.0
2017-Aug-12 07:29N 52°23' E 004°55'0 0.0
2017-Aug-12 06:59N 52°23' E 004°55'0 0.0
2017-Aug-12 06:29N 52°23' E 004°55'0 0.0
2017-Aug-12 05:59N 52°23' E 004°55'0 0.0
2017-Aug-12 05:29N 52°23' E 004°55'0 0.0
2017-Aug-12 04:59N 52°23' E 004°55'0 0.0
2017-Aug-12 04:29N 52°23' E 004°55'0 0.0
2017-Aug-12 03:56N 52°23' E 004°55'0 0.0
2017-Aug-12 03:29N 52°23' E 004°55'0 0.0
2017-Aug-12 02:59N 52°23' E 004°55'0 0.0
2017-Aug-12 02:29N 52°23' E 004°55'0 0.0
2017-Aug-12 01:59N 52°23' E 004°55'0 0.0
2017-Aug-12 01:29N 52°23' E 004°55'0 0.0
2017-Aug-12 00:59N 52°23' E 004°55'0 0.0
2017-Aug-12 00:29N 52°23' E 004°55'0 0.0
2017-Aug-11 23:59N 52°23' E 004°55'0 0.0
2017-Aug-11 23:29N 52°23' E 004°55'0 0.0
2017-Aug-11 22:59N 52°23' E 004°55'0 0.0
2017-Aug-11 22:29N 52°23' E 004°55'0 0.0
2017-Aug-11 21:56N 52°23' E 004°55'0 0.0
2017-Aug-11 21:29N 52°23' E 004°55'0 0.0
2017-Aug-11 20:59N 52°23' E 004°55'0 0.0
2017-Aug-11 20:29N 52°23' E 004°55'0 0.0
2017-Aug-11 19:59N 52°23' E 004°55'0 0.0
2017-Aug-11 19:29N 52°23' E 004°55'0 0.0
2017-Aug-11 18:59N 52°23' E 004°55'0 0.0
2017-Aug-11 18:29N 52°23' E 004°55'0 0.0
2017-Aug-11 17:59N 52°23' E 004°55'0 0.0
2017-Aug-11 17:29N 52°23' E 004°55'0 0.0
2017-Aug-11 16:59N 52°23' E 004°55'0 0.0
2017-Aug-11 16:29N 52°23' E 004°55'0 0.0
2017-Aug-11 15:59N 52°23' E 004°55'0 0.0
2017-Aug-11 15:29N 52°23' E 004°55'0 0.0
2017-Aug-11 14:59N 52°23' E 004°55'0 0.0
2017-Aug-11 13:59N 52°23' E 004°55'0 0.0
2017-Aug-11 13:29N 52°23' E 004°55'0 0.0
2017-Aug-11 12:59N 52°23' E 004°55'0 0.0
2017-Aug-11 12:29N 52°23' E 004°55'0 0.0
2017-Aug-11 11:59N 52°23' E 004°55'0 0.0
2017-Aug-11 11:29N 52°23' E 004°55'0 0.0
2017-Aug-11 10:59N 52°23' E 004°55'0 0.0
2017-Aug-11 10:29N 52°23' E 004°55'0 0.0
2017-Aug-11 09:59N 52°23' E 004°55'0 0.0
2017-Aug-11 09:26N 52°23' E 004°55'0 0.0
2017-Aug-11 08:59N 52°23' E 004°55'0 0.0
2017-Aug-11 08:29N 52°23' E 004°55'0 0.0
2017-Aug-11 07:59N 52°23' E 004°55'0 0.0
2017-Aug-11 07:29N 52°23' E 004°55'1 1.7
2017-Aug-11 07:00N 52°23' E 004°54'3 6.7
2017-Aug-11 06:30N 52°25' E 004°50'4 8.5
2017-Aug-11 06:01N 52°26' E 004°43'4 7.8
2017-Aug-11 05:30N 52°28' E 004°37'1 1.1
2017-Aug-11 05:01N 52°28' E 004°37'1 2.9
2017-Aug-11 04:31N 52°28' E 004°34'712.9
2017-Aug-11 04:00N 52°29' E 004°24'510.9
2017-Aug-11 03:30N 52°29' E 004°15'612.7
2017-Aug-11 03:00N 52°28' E 004°04'612.8
2017-Aug-11 02:30N 52°26' E 003°54'612.7
2017-Aug-11 02:00N 52°23' E 003°45'812.4
2017-Aug-11 01:24N 52°19' E 003°35'512.1
2017-Aug-11 00:59N 52°17' E 003°27'611.9
2017-Aug-11 00:30N 52°14' E 003°19'4911.1
2017-Aug-10 20:05N 51°46' E 002°14'512.3
2017-Aug-10 19:43N 51°43' E 002°09'412.5
2017-Aug-10 19:24N 51°40' E 002°04'512.4
2017-Aug-10 19:00N 51°37' E 001°59'612.6
2017-Aug-10 18:30N 51°32' E 001°51'612.6
2017-Aug-10 18:00N 51°27' E 001°46'612.8
2017-Aug-10 17:30N 51°21' E 001°43'713.1
2017-Aug-10 17:00N 51°14' E 001°40'612.7
2017-Aug-10 16:30N 51°10' E 001°33'714.9
2017-Aug-10 16:01N 51°06' E 001°23'2 0.2
2017-Aug-10 04:25N 51°07' E 001°19'0 0.4
2017-Aug-10 03:57N 51°07' E 001°20'4 8.5
2017-Aug-10 03:30N 51°07' E 001°25'611.9
2017-Aug-10 03:00N 51°10' E 001°34'713.9
2017-Aug-10 02:30N 51°16' E 001°40'713.3
2017-Aug-10 02:00N 51°22' E 001°44'611.9
2017-Aug-10 01:30N 51°28' E 001°47'612.3
2017-Aug-10 01:00N 51°33' E 001°52'612.5
2017-Aug-10 00:30N 51°38' E 001°59'612.6
2017-Aug-10 00:00N 51°42' E 002°06'713.2
2017-Aug-09 23:29N 51°47' E 002°13'1014.4
2017-Aug-09 22:49N 51°55' E 002°23'515.4
2017-Aug-09 22:30N 51°59' E 002°27'815.3
2017-Aug-09 21:59N 52°07' E 002°27'915.4
2017-Aug-09 21:25N 52°16' E 002°27'  

Dump ship's entire track history